Posadas, Argentina

2:32 PM ART en Marzo 06, 2015 (GMT -0300)
Liberador Gral D Jose De San M | Change Station
CLOSE
Current Station
Aeropuerto
Location: Posadas,
Altura: 430 ft
Estaciones meteorológicas cercanas

Alt 430 ft 27.39 °S, 55.97 °W | Updated 32 minutes ago

Scattered Clouds
Nubes dispersas
90 ° F
Sensación térmica 98 ° F
N
2
Viento Variable Viento desde Norte

Hoy
Alta -- | Baja -- ° F
--% Posibilidad de precipitaciones
Ayer
Alta -- | Baja -- ° F
Precip. -- pul
6:39 AM 7:10 PM
Luna llena, 99% visible
Presión 29.89 pul
Visibilidad 6.2 Millas
Nubes Baja 3000 ft
Nubes dispersas 10000 ft
Índice de calor 98 ° F
Punto de rocío 73 ° F
Humedad 59%
Precipitaciones 0.00 pul
Espesor de la nieve No disponible.
UV 8 de una escala de 12
Polen No disponible.
Calidad del aire No disponible.
Flu Activity No disponible.
METAR SARP 061700Z 36002KT 9999 FEW030TCU SCT100 32/23 Q1012

More Conditions Fewer Conditions

Presión 29.89 pul
Visibilidad 6.2 Millas
Nubes Baja 3000 ft
Nubes dispersas 10000 ft
Índice de calor 98 ° F
Punto de rocío 73 ° F
Humedad 59%
Precipitaciones 0.00 pul
Espesor de la nieve No disponible.
UV 8 de una escala de 12
Polen No disponible.
Calidad del aire No disponible.
Flu Activity No disponible.
METAR SARP 061700Z 36002KT 9999 FEW030TCU SCT100 32/23 Q1012

More Conditions Fewer Conditions

10-Day Weather Forecast

Almanac

Astronomía

Mar. 06, 2015 Salida Puesta
Hora real
Crepúsculo civil
Crepúsculo náutico
Crepúsculo astronómico
Luna
Horas de luz
Horas de luz
Tomorrow will be .
, % of the Moon is Illuminated

Extremos de hoy

Máximos del país Bajas del país

Community

WunderPhotos

Upload Photos

1,803,345 ¡fotos cargadas!

WunderBlogs® & News

Nearby

Calidad del aire

  Calidad del aire Índice AQ Contaminante
Not available.

Grosos de nieve

Estación Profundido Altura

Actividad de terremotos

Ciudad Distance Mag. Tiempo y dato
Magnitud mínima muestra es 2,5.

Temperaturas de aguas costeras

Lugar Temperatura

Estaciones meteorológicas cercanas